00:40
Airports
History
Links
Donate
Help keep this website running!
PayPal
Bitcoin
Information on this page is community maintained and may be outdated or inaccurate and is intended for reference only or PC simulator navigating.
Always use approved charts for navigating.
VIDX
HINDON
HINDON (VIDX)
Ghaziabad, Uttar Pradesh, India (201004)
(U)
Lat/Lng:28° 42' 27.74" N / 77° 21' 32.09" E
28.707705 / 77.358913
Elevation:700'ft 213mMSL
ID / ICAO:VIDX
Runways:1
Longest:(09-27) 2,735.9m 8,976ft Asphalt
Distance To
Airport ID:
Nearby VORs <50NM
Nearby NDBs
Nearby WeatherUpdated 07-24-17 13:00 GMT
Nearby weather at VIDD, SAFDARJUNG located 12.6 nautical miles from VIDX
Altimeter: 29.41
Visibility: 2.5 statute miles
Wind: 2 knots (110°)
Temp: 31°c 88°f
Humidity: 70.5%

METAR: VIDD 241300Z 11002KT 4000 HZ SCT035 BKN100 31/25 Q0996 NOSIG

(Powered by phpweather)
Runway 09 / 27
Dimensions:2735.9 x 45.7m 8976' x 150'ft
Surface:Asphalt
Edge Lights:Low intensity
Runway 09 [A]Runway 27 [B]
Heading:090°TH 270°TH
Lat:
Lng:
28° 42' 28.01"N
77° 20' 41.57"E
28° 42' 27.46"N
77° 22' 22.6"E
TDZ:Yes, lighted
User Notes and Comments
Google Map
Nearby Airports
(C) SAFDARJUNG 12.6 NM
VIDD (WX) SW 227°
(C) INDIRA GANDHI INTL 18.4 NM
VIDP (WX) WSW 237°
(U) MEERUT SW 23.6 NM
VA2B NE 54°
(U) BHIWANI 72.0 NM
VIBW W 277°
(U) KARNAL 72.2 NM
VI40 NNW 344°
(U) BHILWARA 82.6 NM
VI20 WSW 238°
(U) SARSAWA 89.0 NM
VISP N
VFR Chart
Flight Planning at SkyVector.com